createdAt,value
2019-05-20T00:03:25.556Z,100825.39
2019-05-20T00:08:27.062Z,100822.22
2019-05-20T00:13:29.029Z,100822.77
2019-05-20T00:18:31.255Z,100829.44
2019-05-20T00:23:32.808Z,100831.51
2019-05-20T00:28:34.561Z,100828.45
2019-05-20T00:33:36.713Z,100834.94
2019-05-20T00:38:38.501Z,100829.28
2019-05-20T00:43:40.048Z,100828.86
2019-05-20T00:48:41.875Z,100828.67
2019-05-20T00:53:43.679Z,100826.63
2019-05-20T00:58:45.514Z,100836.23
2019-05-20T01:03:47.133Z,100825.27
2019-05-20T01:08:48.511Z,100822.61
2019-05-20T01:13:50.072Z,100817.54
2019-05-20T01:18:51.544Z,100817.59
2019-05-20T01:23:53.340Z,100823.03
2019-05-20T01:28:54.892Z,100816.00
2019-05-20T01:33:56.761Z,100808.14
2019-05-20T01:38:58.570Z,100813.44
2019-05-20T01:44:00.058Z,100800.64
2019-05-20T01:49:01.437Z,100797.05
2019-05-20T01:54:03.013Z,100809.77
2019-05-20T01:59:04.843Z,100809.55
2019-05-20T02:04:06.681Z,100811.84
2019-05-20T02:09:08.535Z,100809.67
2019-05-20T02:14:10.420Z,100808.21
2019-05-20T02:19:12.189Z,100807.16
2019-05-20T02:24:13.930Z,100808.56
2019-05-20T02:29:15.456Z,100809.41
2019-05-20T02:34:17.385Z,100818.66
2019-05-20T02:39:18.921Z,100811.20
2019-05-20T02:44:20.601Z,100812.53
2019-05-20T02:49:23.056Z,100813.20
2019-05-20T02:54:24.609Z,100818.70
2019-05-20T02:59:26.630Z,100814.70
2019-05-20T03:04:28.341Z,100809.05
2019-05-20T03:09:29.767Z,100811.56
2019-05-20T03:14:31.349Z,100803.77
2019-05-20T03:19:33.063Z,100813.69
2019-05-20T03:24:34.836Z,100815.70
2019-05-20T03:29:36.696Z,100818.28
2019-05-20T03:34:47.761Z,100820.17
2019-05-20T03:39:41.930Z,100825.91
2019-05-20T03:44:43.551Z,100836.75
2019-05-20T03:49:45.144Z,100838.91
2019-05-20T03:54:46.912Z,100841.13
2019-05-20T03:59:48.925Z,100839.39
2019-05-20T04:05:01.219Z,100845.06
2019-05-20T04:09:55.047Z,100845.77
2019-05-20T04:14:57.378Z,100847.26
2019-05-20T04:19:58.886Z,100836.34
2019-05-20T04:25:00.405Z,100841.61
2019-05-20T04:30:01.996Z,100845.09
2019-05-20T04:35:20.683Z,100843.70
2019-05-20T04:40:07.819Z,100836.34
2019-05-20T04:45:09.615Z,100840.14
2019-05-20T04:50:11.130Z,100834.81
2019-05-20T04:55:12.526Z,100840.16
2019-05-20T05:00:15.932Z,100843.77
2019-05-20T05:05:17.998Z,100848.13
2019-05-20T05:10:19.929Z,100846.55
2019-05-20T05:15:21.444Z,100848.60
2019-05-20T05:20:23.836Z,100850.40
2019-05-20T05:25:25.794Z,100844.80
2019-05-20T05:30:27.735Z,100860.45
2019-05-20T05:35:29.288Z,100862.09
2019-05-20T05:40:31.393Z,100861.63
2019-05-20T05:45:32.912Z,100861.36
2019-05-20T05:50:34.615Z,100857.02
2019-05-20T05:55:36.612Z,100856.81
2019-05-20T06:00:38.563Z,100853.25
2019-05-20T06:05:40.271Z,100862.69
2019-05-20T06:10:41.803Z,100870.49
2019-05-20T06:15:43.348Z,100857.64
2019-05-20T06:20:45.093Z,100872.94
2019-05-20T06:25:46.796Z,100884.63
2019-05-20T06:30:48.729Z,100884.92
2019-05-20T06:35:50.246Z,100892.49
2019-05-20T06:40:51.766Z,100896.17
2019-05-20T06:45:53.630Z,100901.59
2019-05-20T06:50:55.130Z,100904.52
2019-05-20T06:55:58.033Z,100901.63
2019-05-20T07:00:59.918Z,100896.80
2019-05-20T07:06:01.478Z,100905.38
2019-05-20T07:11:02.925Z,100895.60
2019-05-20T07:16:04.470Z,100901.69
2019-05-20T07:21:05.970Z,100907.39
2019-05-20T07:26:07.719Z,100915.80
2019-05-20T07:31:09.365Z,100916.64
2019-05-20T07:36:10.864Z,100911.56
2019-05-20T07:41:13.020Z,100908.20
2019-05-20T07:46:14.892Z,100909.20
2019-05-20T07:51:16.710Z,100922.91
2019-05-20T07:56:22.450Z,100914.08
2019-05-20T08:01:23.930Z,100919.92
2019-05-20T08:06:26.172Z,100915.11
2019-05-20T08:11:27.704Z,100913.35
2019-05-20T08:16:29.463Z,100925.67
2019-05-20T08:21:30.975Z,100931.87
2019-05-20T08:26:32.548Z,100921.59
2019-05-20T08:31:34.410Z,100918.09
2019-05-20T08:36:35.931Z,100922.01
2019-05-20T08:41:37.477Z,100930.95
2019-05-20T08:46:38.980Z,100926.67
2019-05-20T08:51:40.436Z,100924.61
2019-05-20T08:56:43.323Z,100924.34
2019-05-20T09:01:45.726Z,100918.47
2019-05-20T09:06:47.295Z,100941.63
2019-05-20T09:11:49.015Z,100936.86
2019-05-20T09:16:51.031Z,100938.97
2019-05-20T09:21:52.914Z,100953.41
2019-05-20T09:26:54.823Z,100949.95
2019-05-20T09:31:56.390Z,100946.98
2019-05-20T09:36:57.828Z,100949.89
2019-05-20T09:41:59.186Z,100963.77
2019-05-20T09:47:01.186Z,100953.16
2019-05-20T09:52:02.852Z,100958.73
2019-05-20T09:57:04.321Z,100964.92
2019-05-20T10:02:06.466Z,100960.96
2019-05-20T10:07:08.060Z,100964.92
2019-05-20T10:12:09.650Z,100963.36
2019-05-20T10:17:11.248Z,100979.17
2019-05-20T10:22:13.122Z,100985.56
2019-05-20T10:27:14.657Z,100980.45
2019-05-20T10:32:16.258Z,100984.94
2019-05-20T10:37:17.805Z,100992.05
2019-05-20T10:42:19.345Z,100986.98
2019-05-20T10:47:21.762Z,100999.25
2019-05-20T10:52:23.961Z,101003.64
2019-05-20T10:57:25.937Z,101020.52
2019-05-20T11:02:31.175Z,101008.84
2019-05-20T11:07:31.170Z,101016.75
2019-05-20T11:12:32.603Z,101018.24
2019-05-20T11:17:34.120Z,101019.52
2019-05-20T11:22:35.603Z,101029.10
2019-05-20T11:27:37.104Z,101039.56
2019-05-20T11:32:38.610Z,101038.37
2019-05-20T11:37:40.153Z,101037.26
2019-05-20T11:42:42.033Z,101048.17
2019-05-20T11:47:43.591Z,101036.34
2019-05-20T11:52:45.413Z,101040.78
2019-05-20T11:57:46.818Z,101052.33
2019-05-20T12:02:48.714Z,101052.28
2019-05-20T12:07:50.258Z,101050.00
2019-05-20T12:12:52.392Z,101043.14
2019-05-20T12:17:54.032Z,101041.23
2019-05-20T12:22:55.709Z,101038.45
2019-05-20T12:27:57.609Z,101038.45
2019-05-20T12:33:17.796Z,101034.93
2019-05-20T12:38:03.822Z,101043.31
2019-05-20T12:43:05.397Z,101045.38
2019-05-20T12:48:07.478Z,101048.25
2019-05-20T12:53:09.032Z,101051.50
2019-05-20T12:58:10.833Z,101047.02
2019-05-20T13:03:12.421Z,101044.80
2019-05-20T13:08:13.971Z,101048.52
2019-05-20T13:13:15.791Z,101039.52
2019-05-20T13:18:17.328Z,101040.22
2019-05-20T13:23:19.210Z,101047.55
2019-05-20T13:28:20.750Z,101057.63
2019-05-20T13:33:22.313Z,101042.44
2019-05-20T13:38:23.924Z,101052.12
2019-05-20T13:43:26.145Z,101052.98
2019-05-20T13:48:27.962Z,101057.81
2019-05-20T13:53:29.441Z,101047.98
2019-05-20T13:58:30.994Z,101044.36
2019-05-20T14:03:32.514Z,101042.25
2019-05-20T14:08:34.084Z,101042.62
2019-05-20T14:13:35.744Z,101055.14
2019-05-20T14:18:37.530Z,101051.91
2019-05-20T14:23:38.891Z,101055.89
2019-05-20T14:28:40.641Z,101056.81
2019-05-20T14:33:42.219Z,101069.27
2019-05-20T14:38:44.170Z,101071.83
2019-05-20T14:43:45.812Z,101065.95
2019-05-20T14:48:48.213Z,101077.66
2019-05-20T14:53:49.724Z,101082.22
2019-05-20T14:58:51.396Z,101078.28
2019-05-20T15:03:52.912Z,101079.83
2019-05-20T15:08:54.877Z,101076.91
2019-05-20T15:13:59.921Z,101088.61
2019-05-20T15:18:59.909Z,101088.66
2019-05-20T15:24:01.779Z,101084.78
2019-05-20T15:29:04.944Z,101081.22
2019-05-20T15:34:07.264Z,101084.68
2019-05-20T15:39:09.054Z,101091.88
2019-05-20T15:44:10.818Z,101080.69
2019-05-20T15:49:13.196Z,101082.55
2019-05-20T15:54:14.614Z,101088.52
2019-05-20T15:59:16.344Z,101086.59
2019-05-20T16:04:17.912Z,101092.66
2019-05-20T16:09:19.427Z,101094.78
2019-05-20T16:14:21.689Z,101092.38
2019-05-20T16:19:23.348Z,101096.89
2019-05-20T16:24:25.311Z,101095.97
2019-05-20T16:29:27.277Z,101095.67
2019-05-20T16:34:31.022Z,101101.63
2019-05-20T16:39:32.481Z,101103.94
2019-05-20T16:44:34.278Z,101102.37
2019-05-20T16:49:35.814Z,101113.14
2019-05-20T16:54:37.416Z,101107.80
2019-05-20T16:59:38.835Z,101120.85
2019-05-20T17:04:40.446Z,101119.94
2019-05-20T17:09:42.554Z,101111.41
2019-05-20T17:14:44.133Z,101110.11
2019-05-20T17:19:45.943Z,101116.08
2019-05-20T17:24:47.987Z,101104.46
2019-05-20T17:29:49.571Z,101110.42
2019-05-20T17:34:51.141Z,101113.96
2019-05-20T17:39:52.701Z,101110.70
2019-05-20T17:44:55.032Z,101110.39
2019-05-20T17:49:56.503Z,101107.66
2019-05-20T17:54:57.993Z,101105.98
2019-05-20T17:59:59.429Z,101105.58
2019-05-20T18:05:01.520Z,101112.83
2019-05-20T18:10:03.079Z,101110.86
2019-05-20T18:15:04.639Z,101108.23
2019-05-20T18:20:06.182Z,101110.21
2019-05-20T18:25:08.160Z,101116.84
2019-05-20T18:30:10.313Z,101126.75
2019-05-20T18:35:11.880Z,101127.84
2019-05-20T18:40:15.352Z,101130.63
2019-05-20T18:45:16.960Z,101143.50
2019-05-20T18:50:18.504Z,101147.97
2019-05-20T18:55:19.998Z,101171.92
2019-05-20T19:00:22.205Z,101171.73
2019-05-20T19:05:24.431Z,101177.21
2019-05-20T19:10:26.408Z,101187.59
2019-05-20T19:15:27.917Z,101190.67
2019-05-20T19:20:29.510Z,101186.99
2019-05-20T19:25:37.689Z,101201.69
2019-05-20T19:30:35.034Z,101209.77
2019-05-20T19:35:36.627Z,101202.41
2019-05-20T19:40:38.178Z,101210.48
2019-05-20T19:45:39.756Z,101220.88
2019-05-20T19:50:41.163Z,101205.80
2019-05-20T19:55:43.122Z,101215.34
2019-05-20T20:00:44.671Z,101228.71
2019-05-20T20:05:46.283Z,101235.49
2019-05-20T20:10:48.465Z,101241.34
2019-05-20T20:15:49.983Z,101240.94
2019-05-20T20:20:51.525Z,101250.95
2019-05-20T20:25:52.901Z,101253.11
2019-05-20T20:30:54.445Z,101249.30
2019-05-20T20:35:55.951Z,101255.30
2019-05-20T20:40:57.546Z,101272.77
2019-05-20T20:45:59.362Z,101269.08
2019-05-20T20:51:01.948Z,101263.80
2019-05-20T20:56:03.846Z,101274.45
2019-05-20T21:01:05.695Z,101286.47
2019-05-20T21:06:07.450Z,101289.11
2019-05-20T21:11:08.938Z,101283.46
2019-05-20T21:16:10.448Z,101292.34
2019-05-20T21:21:12.713Z,101288.66
2019-05-20T21:26:14.250Z,101284.78
2019-05-20T21:31:15.739Z,101281.73
2019-05-20T21:36:17.377Z,101279.33
2019-05-20T21:41:18.962Z,101281.32
2019-05-20T21:46:20.650Z,101283.91
2019-05-20T21:51:22.280Z,101279.89
2019-05-20T21:56:23.865Z,101283.12
2019-05-20T22:01:25.465Z,101286.66
2019-05-20T22:06:27.057Z,101293.32
2019-05-20T22:11:28.985Z,101290.17
2019-05-20T22:16:30.595Z,101291.81
2019-05-20T22:21:32.195Z,101294.22
2019-05-20T22:26:33.816Z,101289.48
2019-05-20T22:31:35.847Z,101281.73
2019-05-20T22:36:37.440Z,101280.79
2019-05-20T22:41:39.367Z,101275.52
2019-05-20T22:46:40.965Z,101280.63
2019-05-20T22:51:42.545Z,101276.31
2019-05-20T22:56:44.174Z,101278.64
2019-05-20T23:01:46.505Z,101284.63
2019-05-20T23:06:48.065Z,101290.95
2019-05-20T23:11:49.965Z,101290.54
2019-05-20T23:16:51.651Z,101278.95
2019-05-20T23:21:53.553Z,101287.64
2019-05-20T23:26:55.137Z,101283.95
2019-05-20T23:31:56.761Z,101277.22
2019-05-20T23:36:58.647Z,101279.59
2019-05-20T23:42:00.215Z,101287.00
2019-05-20T23:47:01.856Z,101292.16
2019-05-20T23:52:03.507Z,101282.52
2019-05-20T23:57:05.484Z,101273.80
